Unity N — V7WI2 — position and weather

sailwx.info

Track history (hours):
 
Tides and Currents Weather Stations Pressure Air Temp Water Temp Dewpoint Dewpoint Depression Visibility Wind Speed Wind Dir Waves Ship Positions

Unity N

Last reported at 2017-Jan-08 13:03 UTC. Time now 2017-Jan-24 11:14 UTC.
Position N 31°01' E 122°24'.
Warning: this ship's position is 15 days out of date.

Length 229 m; draft 6.5 m.

Type: Cargo ship. MMSI: 538006451.

Date/timePositionNaut miles runAvg speedWind from/ knotsBaromVisibWave heightAir tempDewpointWater temp
2017-Jan-08 13:03N 31°01' E 122°24'611.2
2017-Jan-08 12:33N 31°02' E 122°18'1212.1
2017-Jan-08 11:33N 31°04' E 122°04'9 9.1
2017-Jan-08 10:33N 31°08' E 121°54'1211.9
2017-Jan-08 09:33N 31°17' E 121°45'1110.8
2017-Jan-08 08:33N 31°23' E 121°35'10 9.7
2017-Jan-08 07:33N 31°30' E 121°26'1313.0
2017-Jan-08 06:33N 31°38' E 121°15'1413.5
2017-Jan-08 05:33N 31°46' E 121°02'  
2017-Jan-05 03:06N 31°48' E 120°56'6 8.8
2017-Jan-05 02:27N 31°46' E 121°02'8 9.1
2017-Jan-05 01:33N 31°41' E 121°10'1010.0
2017-Jan-05 00:33N 31°35' E 121°19'1110.8
2017-Jan-04 23:33N 31°27' E 121°28'6 6.4
2017-Jan-04 22:33N 31°24' E 121°34'10 9.6
2017-Jan-04 21:33N 31°19' E 121°44'9 8.8
2017-Jan-04 20:33N 31°16' E 121°54'1010.0
2017-Jan-04 19:33N 31°14' E 122°05'1110.6
2017-Jan-04 18:33N 31°08' E 122°15'9 9.1
2017-Jan-04 17:33N 31°07' E 122°26'6 6.3
2017-Jan-04 16:33N 31°07' E 122°33'21 0.6
2017-Jan-03 08:21N 30°55' E 122°53'37 2.3
2017-Jan-02 16:32N 30°26' E 122°27'  
Track history (hours):
 
Tides and Currents Weather Stations Pressure Air Temp Water Temp Dewpoint Dewpoint Depression Visibility Wind Speed Wind Dir Waves Ship Positions

Unity N

Last reported at 2017-Jan-08 13:03 UTC. Time now 2017-Jan-24 11:14 UTC.
Position N 31°01' E 122°24'.
Warning: this ship's position is 15 days out of date.

Length 229 m; draft 6.5 m.

Type: Cargo ship. MMSI: 538006451.

Date/timePositionNaut miles runAvg speedWind from/ knotsBaromVisibWave heightAir tempDewpointWater temp
2017-Jan-08 13:03N 31°01' E 122°24'611.2
2017-Jan-08 12:33N 31°02' E 122°18'1212.1
2017-Jan-08 11:33N 31°04' E 122°04'9 9.1
2017-Jan-08 10:33N 31°08' E 121°54'1211.9
2017-Jan-08 09:33N 31°17' E 121°45'1110.8
2017-Jan-08 08:33N 31°23' E 121°35'10 9.7
2017-Jan-08 07:33N 31°30' E 121°26'1313.0
2017-Jan-08 06:33N 31°38' E 121°15'1413.5
2017-Jan-08 05:33N 31°46' E 121°02'  
2017-Jan-05 03:06N 31°48' E 120°56'6 8.8
2017-Jan-05 02:27N 31°46' E 121°02'8 9.1
2017-Jan-05 01:33N 31°41' E 121°10'1010.0
2017-Jan-05 00:33N 31°35' E 121°19'1110.8
2017-Jan-04 23:33N 31°27' E 121°28'6 6.4
2017-Jan-04 22:33N 31°24' E 121°34'10 9.6
2017-Jan-04 21:33N 31°19' E 121°44'9 8.8
2017-Jan-04 20:33N 31°16' E 121°54'1010.0
2017-Jan-04 19:33N 31°14' E 122°05'1110.6
2017-Jan-04 18:33N 31°08' E 122°15'9 9.1
2017-Jan-04 17:33N 31°07' E 122°26'6 6.3
2017-Jan-04 16:33N 31°07' E 122°33'21 0.6
2017-Jan-03 08:21N 30°55' E 122°53'37 2.3
2017-Jan-02 16:32N 30°26' E 122°27'  

Dump ship's entire track history